Time;durP1;ratioP1;P1;durP2;ratioP2;P2;SDS_P1;SDS_P2;PMS_P1;PMS_P2;Temp;Humidity;BMP_temperature;BMP_pressure;BME280_temperature;BME280_humidity;BME280_pressure;Samples;Min_cycle;Max_cycle;Signal;HPM_P1;HPM_P2
2023/09/24 00:00:59;;;;;;;7.95;3.20;;;;;;;;;;4994207;28;20053;-78
2023/09/24 00:03:26;;;;;;;6.97;3.10;;;;;;;;;;4993810;28;20490;-78
2023/09/24 00:05:52;;;;;;;8.77;3.47;;;;;;;;;;4995114;28;20042;-78
2023/09/24 00:08:19;;;;;;;9.35;3.83;;;;;;;;;;4995062;28;20401;-78
2023/09/24 00:10:52;;;;;;;12.00;3.83;;;;;;;;;;4993159;28;20054;-78
2023/09/24 00:13:21;;;;;;;7.63;3.60;;;;;;;;;;4994781;28;20050;-78
2023/09/24 00:15:49;;;;;;;7.57;3.33;;;;;;;;;;4994727;28;20055;-78
2023/09/24 00:18:15;;;;;;;7.32;3.70;;;;;;;;;;4991581;28;20057;-78
2023/09/24 00:20:41;;;;;;;7.53;3.45;;;;;;;;;;4991958;28;20066;-78
2023/09/24 00:23:08;;;;;;;7.47;3.35;;;;;;;;;;4994662;28;20074;-78
2023/09/24 00:25:34;;;;;;;6.28;3.30;;;;;;;;;;4994602;28;20052;-78
2023/09/24 00:28:00;;;;;;;8.43;3.10;;;;;;;;;;4988459;28;20053;-78
2023/09/24 00:30:26;;;;;;;5.93;3.20;;;;;;;;;;4989508;28;20046;-78
2023/09/24 00:32:53;;;;;;;6.72;2.78;;;;;;;;;;4993613;28;20096;-78
2023/09/24 00:35:19;;;;;;;5.78;3.38;;;;;;;;;;4994288;28;20054;-78
2023/09/24 00:37:45;;;;;;;8.55;3.40;;;;;;;;;;4992707;28;20152;-78
2023/09/24 00:40:12;;;;;;;8.20;3.13;;;;;;;;;;4994550;28;20042;-78
2023/09/24 00:42:38;;;;;;;6.72;3.50;;;;;;;;;;4980279;28;20043;-78
2023/09/24 00:45:11;;;;;;;7.70;3.45;;;;;;;;;;4992269;28;20508;-78
2023/09/24 00:47:38;;;;;;;7.03;3.42;;;;;;;;;;4987600;28;20077;-78
2023/09/24 00:50:07;;;;;;;6.68;3.60;;;;;;;;;;4988529;28;20093;-78
2023/09/24 00:52:34;;;;;;;6.55;4.00;;;;;;;;;;4987176;28;20078;-78
2023/09/24 00:55:00;;;;;;;6.80;3.38;;;;;;;;;;4974822;28;20043;-78
2023/09/24 00:57:26;;;;;;;10.75;4.13;;;;;;;;;;4991529;28;20062;-78
2023/09/24 00:59:53;;;;;;;10.63;4.70;;;;;;;;;;4993994;28;20050;-78
2023/09/24 01:02:19;;;;;;;7.85;3.38;;;;;;;;;;4991803;28;20097;-78
2023/09/24 01:04:45;;;;;;;10.25;4.32;;;;;;;;;;4993414;28;20421;-78
2023/09/24 01:07:11;;;;;;;6.40;3.65;;;;;;;;;;4993618;28;20046;-78
2023/09/24 01:09:37;;;;;;;6.85;4.00;;;;;;;;;;4994229;28;20049;-78
2023/09/24 01:12:03;;;;;;;7.78;4.00;;;;;;;;;;4993280;28;20042;-78
2023/09/24 01:14:30;;;;;;;7.10;4.05;;;;;;;;;;4993736;28;20481;-78
2023/09/24 01:16:56;;;;;;;10.00;4.60;;;;;;;;;;4987711;28;20069;-78
2023/09/24 01:19:23;;;;;;;11.20;5.30;;;;;;;;;;4991222;28;20827;-77
2023/09/24 01:21:50;;;;;;;8.85;4.80;;;;;;;;;;4988739;28;20093;-78
2023/09/24 01:24:16;;;;;;;9.40;4.95;;;;;;;;;;4978455;28;20054;-78
2023/09/24 01:26:44;;;;;;;9.57;4.30;;;;;;;;;;4974290;28;20130;-78
2023/09/24 01:29:11;;;;;;;7.97;4.75;;;;;;;;;;4993427;28;20536;-78
2023/09/24 01:31:40;;;;;;;7.60;3.95;;;;;;;;;;4991218;28;20101;-78
2023/09/24 01:34:06;;;;;;;7.13;4.38;;;;;;;;;;4993029;28;20046;-78
2023/09/24 01:36:33;;;;;;;10.50;4.57;;;;;;;;;;4993926;28;20054;-78
2023/09/24 01:38:59;;;;;;;9.13;4.30;;;;;;;;;;4993713;28;20050;-78
2023/09/24 01:41:25;;;;;;;13.05;4.60;;;;;;;;;;4991638;28;20129;-78
2023/09/24 01:43:52;;;;;;;6.95;4.00;;;;;;;;;;4980681;28;20075;-78
2023/09/24 01:46:20;;;;;;;8.93;4.25;;;;;;;;;;4993686;28;20046;-78
2023/09/24 01:48:54;;;;;;;6.70;3.67;;;;;;;;;;4992251;28;20047;-78
2023/09/24 01:51:21;;;;;;;11.35;4.80;;;;;;;;;;4993310;28;20509;-78
2023/09/24 01:53:48;;;;;;;13.27;4.38;;;;;;;;;;4992759;28;20753;-78
2023/09/24 01:56:17;;;;;;;9.43;4.30;;;;;;;;;;4976950;28;20058;-78
2023/09/24 01:58:43;;;;;;;18.98;4.78;;;;;;;;;;4978760;28;20077;-78
2023/09/24 02:01:09;;;;;;;60.40;5.32;;;;;;;;;;4992552;28;20485;-78
2023/09/24 02:03:36;;;;;;;25.85;5.13;;;;;;;;;;4991804;28;20567;-78
2023/09/24 02:06:03;;;;;;;35.70;6.65;;;;;;;;;;4975448;28;20054;-78
2023/09/24 02:08:30;;;;;;;47.08;6.32;;;;;;;;;;4974043;28;20059;-78
2023/09/24 02:10:57;;;;;;;44.47;6.07;;;;;;;;;;4993665;28;20062;-78
2023/09/24 02:13:23;;;;;;;26.58;6.38;;;;;;;;;;4977944;28;20451;-78
2023/09/24 02:15:49;;;;;;;49.05;7.97;;;;;;;;;;4979710;28;20377;-78
2023/09/24 02:18:16;;;;;;;38.75;6.65;;;;;;;;;;4992656;28;20049;-78
2023/09/24 02:20:46;;;;;;;85.80;8.02;;;;;;;;;;4992844;28;20043;-78
2023/09/24 02:23:13;;;;;;;54.63;7.00;;;;;;;;;;4986871;28;20046;-78
2023/09/24 02:25:39;;;;;;;36.90;6.65;;;;;;;;;;4974152;28;20054;-78
2023/09/24 02:28:05;;;;;;;30.98;5.95;;;;;;;;;;4996920;28;20054;-78
2023/09/24 02:30:31;;;;;;;59.15;6.80;;;;;;;;;;4996229;28;20117;-78
2023/09/24 02:32:58;;;;;;;93.45;8.35;;;;;;;;;;4992586;28;20038;-78
2023/09/24 02:35:25;;;;;;;84.45;7.93;;;;;;;;;;4996346;28;20050;-78
2023/09/24 02:37:51;;;;;;;59.85;8.50;;;;;;;;;;4981884;28;20046;-78
2023/09/24 02:40:22;;;;;;;51.25;7.57;;;;;;;;;;4993339;28;20156;-78
2023/09/24 02:42:50;;;;;;;23.10;6.35;;;;;;;;;;4981997;28;20081;-78
2023/09/24 02:45:16;;;;;;;35.40;7.38;;;;;;;;;;4985180;28;20043;-78
2023/09/24 02:47:43;;;;;;;59.13;7.90;;;;;;;;;;4978525;28;20050;-78
2023/09/24 02:50:12;;;;;;;46.25;8.20;;;;;;;;;;4994710;28;20102;-78
2023/09/24 02:52:39;;;;;;;55.42;8.25;;;;;;;;;;4989599;28;20050;-78
2023/09/24 02:55:07;;;;;;;55.50;8.57;;;;;;;;;;4981347;28;20049;-78
2023/09/24 02:57:33;;;;;;;79.78;9.85;;;;;;;;;;4996571;28;20493;-78
2023/09/24 02:59:59;;;;;;;64.40;9.23;;;;;;;;;;4996673;28;20043;-78
2023/09/24 03:02:28;;;;;;;57.40;8.27;;;;;;;;;;4995739;28;20331;-78
2023/09/24 03:04:54;;;;;;;32.22;8.52;;;;;;;;;;4996066;28;20039;-78
2023/09/24 03:07:20;;;;;;;49.63;8.85;;;;;;;;;;4992372;28;20081;-78
2023/09/24 03:09:46;;;;;;;30.50;7.55;;;;;;;;;;4996323;28;20485;-78
2023/09/24 03:12:13;;;;;;;23.50;7.78;;;;;;;;;;4993994;28;20068;-78
2023/09/24 03:14:39;;;;;;;35.95;8.70;;;;;;;;;;4996067;28;20046;-77
2023/09/24 03:17:05;;;;;;;68.53;10.45;;;;;;;;;;4991573;28;20489;-77
2023/09/24 03:19:31;;;;;;;26.38;8.95;;;;;;;;;;4993031;28;20077;-78
2023/09/24 03:21:57;;;;;;;18.55;8.68;;;;;;;;;;4994264;28;20042;-78
2023/09/24 03:24:23;;;;;;;43.42;11.13;;;;;;;;;;4992407;28;20390;-78
2023/09/24 03:26:49;;;;;;;69.55;10.35;;;;;;;;;;4994538;28;20046;-78
2023/09/24 03:29:15;;;;;;;31.20;9.13;;;;;;;;;;4989149;28;20053;-78
2023/09/24 03:31:42;;;;;;;45.92;9.70;;;;;;;;;;4995337;28;20058;-78
2023/09/24 03:34:09;;;;;;;39.83;10.35;;;;;;;;;;4994505;28;20042;-78
2023/09/24 03:36:35;;;;;;;87.97;11.02;;;;;;;;;;4993886;28;20050;-78
2023/09/24 03:39:01;;;;;;;79.65;10.95;;;;;;;;;;4995721;28;20062;-78
2023/09/24 03:41:28;;;;;;;79.93;10.82;;;;;;;;;;4994303;28;20092;-78
2023/09/24 03:43:54;;;;;;;54.05;9.15;;;;;;;;;;4995563;28;20130;-78
2023/09/24 03:46:20;;;;;;;69.30;11.00;;;;;;;;;;4995193;28;20465;-78
2023/09/24 03:48:46;;;;;;;45.55;9.82;;;;;;;;;;4994246;28;20050;-78
2023/09/24 03:51:12;;;;;;;40.13;10.70;;;;;;;;;;4995530;28;20046;-78
2023/09/24 03:53:38;;;;;;;37.00;10.15;;;;;;;;;;4994312;28;20501;-78
2023/09/24 03:56:07;;;;;;;26.08;8.52;;;;;;;;;;4990687;28;20051;-77
2023/09/24 03:58:33;;;;;;;28.60;9.60;;;;;;;;;;4980315;28;20046;-78
2023/09/24 04:00:59;;;;;;;55.08;10.50;;;;;;;;;;4995496;28;20050;-78
2023/09/24 04:03:25;;;;;;;52.90;9.13;;;;;;;;;;4993930;28;20095;-78
2023/09/24 04:05:52;;;;;;;23.55;9.73;;;;;;;;;;4994520;28;20062;-78
2023/09/24 04:08:18;;;;;;;15.27;8.55;;;;;;;;;;4988888;28;20039;-78
2023/09/24 04:10:45;;;;;;;29.90;9.45;;;;;;;;;;4974088;28;20050;-78
2023/09/24 04:13:12;;;;;;;21.92;8.88;;;;;;;;;;4976295;28;20094;-78
2023/09/24 04:15:38;;;;;;;16.23;8.60;;;;;;;;;;4986936;28;20408;-78
2023/09/24 04:18:04;;;;;;;21.17;8.55;;;;;;;;;;4985101;28;20420;-78
2023/09/24 04:20:33;;;;;;;15.50;8.27;;;;;;;;;;4990951;28;20408;-78
2023/09/24 04:22:59;;;;;;;10.35;7.47;;;;;;;;;;4989122;28;20381;-78
2023/09/24 04:25:26;;;;;;;14.43;7.65;;;;;;;;;;4991699;28;20428;-78
2023/09/24 04:27:52;;;;;;;25.52;8.02;;;;;;;;;;4988584;28;20050;-78
2023/09/24 04:30:19;;;;;;;201.38;9.98;;;;;;;;;;4975003;28;20057;-78
2023/09/24 04:32:51;;;;;;;244.82;10.20;;;;;;;;;;4987606;28;20047;-78
2023/09/24 04:35:19;;;;;;;72.78;8.18;;;;;;;;;;4993974;28;20046;-78
2023/09/24 04:37:45;;;;;;;80.38;8.82;;;;;;;;;;4993310;28;20046;-79
2023/09/24 04:40:14;;;;;;;43.85;8.50;;;;;;;;;;4994186;28;20050;-78
2023/09/24 04:42:41;;;;;;;11.32;7.97;;;;;;;;;;4993895;28;20054;-78
2023/09/24 04:45:08;;;;;;;10.30;8.38;;;;;;;;;;4992872;28;20054;-78
2023/09/24 04:47:34;;;;;;;9.75;8.02;;;;;;;;;;4993378;28;20082;-77
2023/09/24 04:50:02;;;;;;;10.27;8.30;;;;;;;;;;4987968;28;20042;-77
2023/09/24 04:52:28;;;;;;;12.65;8.32;;;;;;;;;;4980222;28;20129;-78
2023/09/24 04:54:54;;;;;;;11.13;8.10;;;;;;;;;;4978455;28;20038;-78
2023/09/24 04:57:20;;;;;;;12.60;8.38;;;;;;;;;;4991874;28;20044;-78
2023/09/24 04:59:47;;;;;;;10.10;8.20;;;;;;;;;;4982534;28;20501;-78
2023/09/24 05:02:13;;;;;;;12.52;9.10;;;;;;;;;;4993564;28;20058;-78
2023/09/24 05:04:39;;;;;;;14.07;9.55;;;;;;;;;;4993784;28;20523;-78
2023/09/24 05:07:05;;;;;;;15.80;9.98;;;;;;;;;;4986419;28;20042;-78
2023/09/24 05:09:32;;;;;;;13.43;9.52;;;;;;;;;;4994039;28;20050;-78
2023/09/24 05:11:58;;;;;;;12.82;9.20;;;;;;;;;;4992987;28;20056;-78
2023/09/24 05:14:24;;;;;;;16.00;9.88;;;;;;;;;;4990751;28;20120;-77
2023/09/24 05:16:51;;;;;;;15.75;9.98;;;;;;;;;;4989937;28;20046;-78
2023/09/24 05:19:17;;;;;;;16.10;10.50;;;;;;;;;;4991639;28;20488;-78
2023/09/24 05:21:44;;;;;;;15.48;9.50;;;;;;;;;;4974614;28;20103;-78
2023/09/24 05:24:11;;;;;;;17.42;10.52;;;;;;;;;;4986284;28;20046;-78
2023/09/24 05:26:37;;;;;;;14.85;9.27;;;;;;;;;;4992845;28;20089;-78
2023/09/24 05:29:04;;;;;;;16.75;9.80;;;;;;;;;;4985527;28;20086;-78
2023/09/24 05:31:31;;;;;;;16.70;10.18;;;;;;;;;;4974055;28;20094;-78
2023/09/24 05:33:57;;;;;;;15.50;10.30;;;;;;;;;;4977080;28;20483;-77
2023/09/24 05:36:23;;;;;;;15.20;10.27;;;;;;;;;;4992758;28;20054;-77
2023/09/24 05:38:49;;;;;;;13.23;9.25;;;;;;;;;;4975327;28;20557;-78
2023/09/24 05:41:16;;;;;;;14.90;9.43;;;;;;;;;;4992737;28;20042;-78
2023/09/24 05:43:44;;;;;;;10.95;9.02;;;;;;;;;;4989934;28;20064;-78
2023/09/24 05:46:11;;;;;;;15.68;9.50;;;;;;;;;;4990560;28;20035;-78
2023/09/24 05:48:37;;;;;;;15.82;10.32;;;;;;;;;;4981621;28;20054;-78
2023/09/24 05:51:04;;;;;;;19.02;10.27;;;;;;;;;;4988296;28;20039;-78
2023/09/24 05:53:30;;;;;;;14.57;9.93;;;;;;;;;;4989332;28;20370;-78
2023/09/24 05:55:56;;;;;;;13.13;9.77;;;;;;;;;;4990639;28;20148;-78
2023/09/24 05:58:23;;;;;;;18.40;9.85;;;;;;;;;;4991057;28;20473;-78
2023/09/24 06:00:50;;;;;;;14.05;10.20;;;;;;;;;;4988608;28;20417;-78
2023/09/24 06:03:16;;;;;;;15.77;9.50;;;;;;;;;;4984709;28;20066;-78
2023/09/24 06:05:42;;;;;;;14.55;9.90;;;;;;;;;;4973315;28;20382;-78
2023/09/24 06:08:09;;;;;;;17.45;10.65;;;;;;;;;;4991394;28;20071;-78
2023/09/24 06:10:35;;;;;;;13.60;10.02;;;;;;;;;;4990125;28;20042;-78
2023/09/24 06:13:01;;;;;;;17.88;9.90;;;;;;;;;;4976641;28;20054;-78
2023/09/24 06:15:27;;;;;;;16.73;9.90;;;;;;;;;;4983830;28;20046;-78
2023/09/24 06:17:53;;;;;;;14.82;10.07;;;;;;;;;;4992126;28;20496;-78
2023/09/24 06:20:19;;;;;;;14.30;10.52;;;;;;;;;;4991629;28;20053;-78
2023/09/24 06:22:54;;;;;;;17.05;9.77;;;;;;;;;;4981661;28;20559;-78
2023/09/24 06:25:20;;;;;;;20.13;9.95;;;;;;;;;;4986629;28;20043;-78
2023/09/24 06:27:47;;;;;;;18.38;10.73;;;;;;;;;;4989901;28;20046;-78
2023/09/24 06:30:13;;;;;;;13.90;9.07;;;;;;;;;;4990660;28;20057;-78
2023/09/24 06:32:39;;;;;;;12.02;8.75;;;;;;;;;;4989297;28;20066;-78
2023/09/24 06:35:05;;;;;;;12.57;8.48;;;;;;;;;;4991153;28;20505;-78
2023/09/24 06:37:31;;;;;;;11.50;8.70;;;;;;;;;;4986267;28;20426;-78
2023/09/24 06:39:58;;;;;;;11.65;8.27;;;;;;;;;;4991215;28;20096;-78
2023/09/24 06:42:24;;;;;;;11.57;7.78;;;;;;;;;;4990672;28;20064;-79
2023/09/24 06:44:51;;;;;;;14.43;7.25;;;;;;;;;;4991559;28;20458;-79
2023/09/24 06:47:17;;;;;;;12.35;7.75;;;;;;;;;;4989396;28;20494;-79
2023/09/24 06:49:43;;;;;;;11.73;7.55;;;;;;;;;;4990524;28;20057;-79
2023/09/24 06:52:09;;;;;;;11.98;7.10;;;;;;;;;;4981751;28;20070;-79
2023/09/24 06:54:35;;;;;;;10.45;7.18;;;;;;;;;;4978109;28;20061;-79
2023/09/24 06:57:01;;;;;;;11.00;6.82;;;;;;;;;;4975866;28;20051;-79
2023/09/24 06:59:28;;;;;;;9.95;6.85;;;;;;;;;;4980080;28;20505;-79
2023/09/24 07:01:54;;;;;;;11.95;7.00;;;;;;;;;;4989752;28;20057;-77
2023/09/24 07:04:20;;;;;;;11.10;6.47;;;;;;;;;;4994450;28;20043;-77
2023/09/24 07:06:46;;;;;;;11.93;7.35;;;;;;;;;;4994604;28;20116;-77
2023/09/24 07:09:12;;;;;;;11.52;6.70;;;;;;;;;;4995147;28;20408;-78
2023/09/24 07:11:38;;;;;;;10.25;6.32;;;;;;;;;;4988180;28;20101;-77
2023/09/24 07:14:05;;;;;;;11.20;7.10;;;;;;;;;;4992907;28;20074;-77
2023/09/24 07:16:32;;;;;;;10.77;6.80;;;;;;;;;;4987293;28;20078;-78
2023/09/24 07:18:58;;;;;;;9.38;6.80;;;;;;;;;;4982699;28;20097;-77
2023/09/24 07:21:28;;;;;;;13.13;7.18;;;;;;;;;;4985759;28;20038;-77
2023/09/24 07:23:55;;;;;;;11.70;6.93;;;;;;;;;;4995000;28;20398;-77
2023/09/24 07:26:25;;;;;;;10.30;6.88;;;;;;;;;;4991425;28;20464;-78
2023/09/24 07:28:52;;;;;;;11.55;6.78;;;;;;;;;;4984738;28;20058;-77
2023/09/24 07:31:21;;;;;;;10.93;6.93;;;;;;;;;;4988323;28;20080;-78
2023/09/24 07:33:47;;;;;;;11.43;6.57;;;;;;;;;;4991566;28;20057;-77
2023/09/24 07:36:13;;;;;;;10.35;6.15;;;;;;;;;;4994076;28;20042;-77
2023/09/24 07:38:40;;;;;;;11.82;6.90;;;;;;;;;;4991158;28;20092;-77
2023/09/24 07:41:10;;;;;;;12.18;7.32;;;;;;;;;;4977249;28;20054;-77
2023/09/24 07:43:41;;;;;;;14.68;7.40;;;;;;;;;;4983583;28;20583;-77
2023/09/24 07:46:11;;;;;;;;;;;;;;;;;;5001557;28;20091;-77
2023/09/24 07:48:37;;;;;;;10.68;6.50;;;;;;;;;;4983152;28;19996;-77
2023/09/24 07:51:03;;;;;;;13.32;6.85;;;;;;;;;;4990947;28;20046;-77
2023/09/24 07:53:29;;;;;;;11.38;6.95;;;;;;;;;;4988012;28;20077;-78
2023/09/24 07:55:55;;;;;;;12.00;6.53;;;;;;;;;;4983034;28;20074;-77
2023/09/24 07:58:25;;;;;;;12.02;6.65;;;;;;;;;;4985518;28;20049;-77
2023/09/24 08:00:52;;;;;;;12.77;6.95;;;;;;;;;;4991475;28;20085;-77
2023/09/24 08:03:19;;;;;;;12.75;6.85;;;;;;;;;;4993895;28;20109;-77
2023/09/24 08:05:45;;;;;;;12.07;6.60;;;;;;;;;;4994152;28;20050;-77
2023/09/24 08:08:12;;;;;;;14.48;6.70;;;;;;;;;;4993061;28;20042;-77
2023/09/24 08:10:38;;;;;;;11.50;6.78;;;;;;;;;;4975709;28;20054;-77
2023/09/24 08:13:04;;;;;;;13.60;7.15;;;;;;;;;;4993809;28;20470;-77
2023/09/24 08:15:31;;;;;;;11.57;6.88;;;;;;;;;;4991528;28;20073;-77
2023/09/24 08:17:57;;;;;;;11.05;6.60;;;;;;;;;;4993600;28;20046;-77
2023/09/24 08:20:23;;;;;;;10.50;6.05;;;;;;;;;;4993540;28;20076;-77
2023/09/24 08:22:49;;;;;;;14.40;7.15;;;;;;;;;;4980419;28;20122;-78
2023/09/24 08:25:15;;;;;;;12.32;7.03;;;;;;;;;;4980530;28;20108;-77
2023/09/24 08:27:41;;;;;;;11.80;6.85;;;;;;;;;;4966101;28;20140;-77
2023/09/24 08:30:08;;;;;;;12.75;6.97;;;;;;;;;;4984997;28;20043;-77
2023/09/24 08:32:34;;;;;;;12.15;7.22;;;;;;;;;;4975758;28;20087;-78
2023/09/24 08:35:00;;;;;;;11.05;7.00;;;;;;;;;;4982880;28;20038;-79
2023/09/24 08:37:26;;;;;;;10.98;6.72;;;;;;;;;;4992130;28;20058;-78
2023/09/24 08:39:52;;;;;;;11.23;6.25;;;;;;;;;;4986936;28;20042;-77
2023/09/24 08:42:19;;;;;;;12.10;7.03;;;;;;;;;;4981701;28;20061;-77
2023/09/24 08:44:49;;;;;;;10.82;6.22;;;;;;;;;;4988603;28;20388;-77
2023/09/24 08:47:15;;;;;;;11.65;6.40;;;;;;;;;;4993015;28;20050;-77
2023/09/24 08:49:42;;;;;;;11.73;6.13;;;;;;;;;;4984346;28;20043;-78
2023/09/24 08:52:09;;;;;;;11.15;5.60;;;;;;;;;;4988569;28;20140;-77
2023/09/24 08:54:37;;;;;;;13.20;5.32;;;;;;;;;;4985166;28;20039;-77
2023/09/24 08:57:03;;;;;;;13.25;6.30;;;;;;;;;;4987890;28;20042;-77
2023/09/24 08:59:29;;;;;;;14.10;6.07;;;;;;;;;;4985488;28;20086;-77
2023/09/24 09:01:55;;;;;;;12.75;5.45;;;;;;;;;;4987811;28;20089;-78
2023/09/24 09:04:21;;;;;;;12.50;5.35;;;;;;;;;;4990686;28;20085;-77
2023/09/24 09:06:47;;;;;;;13.65;6.20;;;;;;;;;;4986938;28;20045;-77
2023/09/24 09:09:26;;;;;;;12.02;5.72;;;;;;;;;;4984175;28;20062;-77
2023/09/24 09:11:52;;;;;;;10.38;5.65;;;;;;;;;;4981849;28;20046;-78
2023/09/24 09:14:33;;;;;;;10.02;5.38;;;;;;;;;;4985971;28;20146;-77
2023/09/24 09:16:59;;;;;;;11.88;5.05;;;;;;;;;;4974444;28;20054;-78
2023/09/24 09:19:25;;;;;;;9.60;4.82;;;;;;;;;;4984824;28;20080;-78
2023/09/24 09:21:52;;;;;;;12.30;4.68;;;;;;;;;;4988110;28;20050;-77
2023/09/24 09:24:25;;;;;;;12.00;4.80;;;;;;;;;;4992776;28;20050;-77
2023/09/24 09:26:55;;;;;;;10.52;5.40;;;;;;;;;;4986845;28;20046;-77
2023/09/24 09:29:25;;;;;;;11.73;5.10;;;;;;;;;;4988212;28;20054;-77
2023/09/24 09:31:52;;;;;;;10.23;4.80;;;;;;;;;;4984103;28;20057;-78
2023/09/24 09:34:19;;;;;;;11.30;4.75;;;;;;;;;;4984340;28;20096;-78
2023/09/24 09:36:45;;;;;;;10.80;4.78;;;;;;;;;;4988991;28;20441;-78
2023/09/24 09:39:11;;;;;;;9.07;4.15;;;;;;;;;;4977236;28;20113;-78
2023/09/24 09:41:41;;;;;;;9.13;4.13;;;;;;;;;;4991622;28;20038;-80
2023/09/24 09:44:07;;;;;;;8.80;3.78;;;;;;;;;;4982424;28;20042;-77
2023/09/24 09:46:41;;;;;;;11.38;4.30;;;;;;;;;;4993999;28;20046;-79
2023/09/24 09:49:07;;;;;;;11.35;3.50;;;;;;;;;;4992186;28;20054;-79
2023/09/24 09:51:39;;;;;;;9.57;3.50;;;;;;;;;;4986313;28;20050;-79
2023/09/24 09:54:06;;;;;;;9.20;3.42;;;;;;;;;;4983034;28;20392;-79
2023/09/24 09:56:33;;;;;;;9.35;2.95;;;;;;;;;;4992407;28;20556;-79
2023/09/24 09:59:00;;;;;;;8.82;3.40;;;;;;;;;;4977570;28;20047;-79
2023/09/24 10:01:26;;;;;;;8.25;2.92;;;;;;;;;;4987577;28;20493;-79
2023/09/24 10:03:53;;;;;;;7.60;2.75;;;;;;;;;;4990872;28;20125;-79
2023/09/24 10:06:19;;;;;;;9.60;2.85;;;;;;;;;;4993047;28;20051;-79
2023/09/24 10:08:48;;;;;;;7.95;2.72;;;;;;;;;;4976728;28;20129;-79
2023/09/24 10:11:33;;;;;;;9.45;2.60;;;;;;;;;;4972155;28;20082;-79
2023/09/24 10:14:06;;;;;;;9.75;2.50;;;;;;;;;;4987860;28;20054;-79
2023/09/24 10:16:32;;;;;;;8.15;2.83;;;;;;;;;;4979031;28;20093;-79
2023/09/24 10:18:59;;;;;;;11.18;2.53;;;;;;;;;;4991744;28;20050;-78
2023/09/24 10:21:32;;;;;;;8.82;2.50;;;;;;;;;;4982189;28;20062;-79
2023/09/24 10:23:59;;;;;;;8.27;2.75;;;;;;;;;;4973925;28;20149;-80
2023/09/24 10:26:44;;;;;;;9.48;2.10;;;;;;;;;;4987486;28;20050;-79
2023/09/24 10:29:10;;;;;;;8.98;2.40;;;;;;;;;;4983802;28;20092;-79
2023/09/24 10:31:56;;;;;;;8.68;2.40;;;;;;;;;;4988117;28;20051;-79
2023/09/24 10:34:22;;;;;;;9.82;2.60;;;;;;;;;;4987504;28;20065;-80
2023/09/24 10:37:09;;;;;;;9.00;2.60;;;;;;;;;;4991871;28;20050;-80
2023/09/24 10:39:55;;;;;;;9.70;2.70;;;;;;;;;;4995754;28;20445;-80
2023/09/24 10:42:21;;;;;;;10.55;2.90;;;;;;;;;;4983898;28;20396;-79
2023/09/24 10:44:47;;;;;;;8.38;2.70;;;;;;;;;;4981037;28;20043;-79
2023/09/24 10:47:22;;;;;;;8.48;2.70;;;;;;;;;;4992810;28;20057;-80
2023/09/24 10:49:48;;;;;;;8.18;2.22;;;;;;;;;;4990777;28;20049;-79
2023/09/24 10:52:14;;;;;;;10.57;2.53;;;;;;;;;;4995516;28;20050;-80
2023/09/24 10:54:41;;;;;;;6.93;2.22;;;;;;;;;;4991665;28;20050;-80
2023/09/24 10:57:08;;;;;;;7.90;2.30;;;;;;;;;;4992595;28;20050;-79
2023/09/24 10:59:34;;;;;;;8.10;2.20;;;;;;;;;;4997571;28;20042;-80
2023/09/24 11:02:16;;;;;;;7.07;2.13;;;;;;;;;;4983451;28;20093;-80
2023/09/24 11:04:42;;;;;;;8.23;2.08;;;;;;;;;;4981029;28;20070;-80
2023/09/24 11:07:09;;;;;;;6.72;2.05;;;;;;;;;;4995608;28;20051;-79
2023/09/24 11:09:35;;;;;;;8.13;2.08;;;;;;;;;;4989716;28;20051;-79
2023/09/24 11:12:01;;;;;;;6.10;1.85;;;;;;;;;;4997602;28;20516;-79
2023/09/24 11:14:27;;;;;;;7.55;1.80;;;;;;;;;;4994708;28;20520;-79
2023/09/24 11:16:54;;;;;;;7.25;2.10;;;;;;;;;;4995079;28;20038;-79
2023/09/24 11:19:55;;;;;;;6.70;2.03;;;;;;;;;;4996804;28;20089;-79
2023/09/24 11:22:25;;;;;;;5.70;1.50;;;;;;;;;;4917114;29;20404;-80
2023/09/24 11:25:07;;;;;;;8.98;2.00;;;;;;;;;;4919006;29;20123;-79
2023/09/24 11:27:34;;;;;;;6.30;1.55;;;;;;;;;;4936944;29;20051;-80
2023/09/24 11:30:00;;;;;;;7.03;2.03;;;;;;;;;;4936784;29;20474;-79
2023/09/24 11:32:27;;;;;;;5.50;1.63;;;;;;;;;;4936815;29;20059;-79
2023/09/24 11:35:13;;;;;;;7.65;1.70;;;;;;;;;;4936854;29;20051;-80
2023/09/24 11:37:50;;;;;;;6.68;1.60;;;;;;;;;;4902216;29;20056;-79
2023/09/24 11:40:22;;;;;;;5.45;1.60;;;;;;;;;;4918187;29;20048;-79
2023/09/24 11:42:53;;;;;;;5.90;1.45;;;;;;;;;;4926906;29;20119;-80
2023/09/24 11:45:35;;;;;;;6.93;1.98;;;;;;;;;;4937775;29;20047;-80
2023/09/24 11:48:02;;;;;;;8.15;1.95;;;;;;;;;;4937464;29;20044;-80
2023/09/24 11:50:29;;;;;;;7.18;2.00;;;;;;;;;;4936052;29;20067;-80
2023/09/24 11:52:55;;;;;;;6.22;1.73;;;;;;;;;;4937623;29;20051;-80
2023/09/24 11:55:21;;;;;;;5.63;1.25;;;;;;;;;;4941640;28;20035;-79
2023/09/24 11:57:47;;;;;;;4.68;1.38;;;;;;;;;;4988178;28;20444;-79
2023/09/24 12:00:13;;;;;;;7.55;1.60;;;;;;;;;;4981453;28;20047;-79
2023/09/24 12:02:40;;;;;;;6.82;1.52;;;;;;;;;;4982872;28;20050;-79
2023/09/24 12:05:06;;;;;;;5.82;1.55;;;;;;;;;;4993000;28;20061;-79
2023/09/24 12:07:33;;;;;;;5.75;1.58;;;;;;;;;;4988800;28;20505;-79
2023/09/24 12:10:01;;;;;;;7.10;1.67;;;;;;;;;;4987299;28;20500;-79
2023/09/24 12:12:27;;;;;;;5.15;1.52;;;;;;;;;;4984766;28;20047;-79
2023/09/24 12:14:53;;;;;;;6.25;1.60;;;;;;;;;;4989891;28;20039;-79
2023/09/24 12:17:19;;;;;;;5.80;1.60;;;;;;;;;;4995070;28;20042;-79
2023/09/24 12:19:46;;;;;;;6.93;1.75;;;;;;;;;;4995018;28;20408;-79
2023/09/24 12:22:13;;;;;;;6.13;1.50;;;;;;;;;;4994166;28;20492;-79
2023/09/24 12:24:39;;;;;;;6.38;1.50;;;;;;;;;;4995481;28;20050;-80
2023/09/24 12:27:05;;;;;;;8.75;1.70;;;;;;;;;;4996458;28;20039;-79
2023/09/24 12:29:32;;;;;;;5.78;1.75;;;;;;;;;;4997655;28;20082;-80
2023/09/24 12:32:01;;;;;;;7.00;1.75;;;;;;;;;;4982209;28;20053;-80
2023/09/24 12:34:27;;;;;;;7.03;1.48;;;;;;;;;;4972596;28;20055;-80
2023/09/24 12:36:54;;;;;;;5.30;1.52;;;;;;;;;;4941093;29;20043;-78
2023/09/24 12:39:20;;;;;;;6.88;1.63;;;;;;;;;;4957716;28;20086;-79
2023/09/24 12:41:49;;;;;;;5.40;1.75;;;;;;;;;;4957357;29;20134;-79
2023/09/24 12:44:15;;;;;;;6.25;1.67;;;;;;;;;;4967905;28;20165;-80
2023/09/24 12:46:41;;;;;;;5.45;1.50;;;;;;;;;;4961112;28;20050;-80
2023/09/24 12:49:07;;;;;;;7.10;1.60;;;;;;;;;;4977988;28;20047;-79
2023/09/24 12:51:33;;;;;;;5.72;1.48;;;;;;;;;;4978085;28;20089;-80
2023/09/24 12:53:59;;;;;;;5.90;1.85;;;;;;;;;;4967279;28;20057;-80
2023/09/24 12:56:26;;;;;;;5.60;1.48;;;;;;;;;;4960844;29;20050;-80
2023/09/24 12:58:52;;;;;;;7.80;1.65;;;;;;;;;;4961739;29;20062;-80
2023/09/24 13:01:18;;;;;;;5.95;1.52;;;;;;;;;;4962639;28;20046;-80
2023/09/24 13:03:44;;;;;;;5.13;1.73;;;;;;;;;;4944948;28;20133;-80
2023/09/24 13:06:17;;;;;;;7.13;1.48;;;;;;;;;;4978825;28;20438;-80
2023/09/24 13:08:44;;;;;;;5.07;1.55;;;;;;;;;;4944876;28;20098;-80
2023/09/24 13:11:12;;;;;;;6.07;1.60;;;;;;;;;;4959830;28;20066;-80
2023/09/24 13:13:38;;;;;;;5.53;1.50;;;;;;;;;;4961193;28;20094;-80
2023/09/24 13:16:04;;;;;;;4.82;1.25;;;;;;;;;;4960841;28;20055;-80
2023/09/24 13:18:30;;;;;;;4.28;1.55;;;;;;;;;;4978569;28;20045;-80
2023/09/24 13:20:56;;;;;;;6.45;1.63;;;;;;;;;;4978952;28;20453;-80
2023/09/24 13:23:23;;;;;;;5.93;1.50;;;;;;;;;;4977554;28;20069;-80
2023/09/24 13:25:49;;;;;;;5.13;1.35;;;;;;;;;;4978680;28;20126;-80
2023/09/24 13:28:15;;;;;;;6.68;1.63;;;;;;;;;;4974658;28;20043;-81
2023/09/24 13:30:42;;;;;;;5.40;1.50;;;;;;;;;;4958656;29;20383;-80
2023/09/24 13:33:08;;;;;;;7.68;1.60;;;;;;;;;;4977932;28;20059;-80
2023/09/24 13:35:44;;;;;;;9.77;2.08;;;;;;;;;;4976749;28;20471;-80
2023/09/24 13:38:10;;;;;;;5.50;1.63;;;;;;;;;;4977132;28;20050;-80
2023/09/24 13:40:39;;;;;;;5.60;1.58;;;;;;;;;;4993485;28;20089;-80
2023/09/24 13:43:06;;;;;;;5.55;1.30;;;;;;;;;;4992778;28;20105;-80
2023/09/24 13:45:32;;;;;;;4.50;1.30;;;;;;;;;;4977242;28;20055;-80
2023/09/24 13:48:01;;;;;;;6.63;1.55;;;;;;;;;;4976607;28;20047;-80
2023/09/24 13:50:27;;;;;;;6.93;1.45;;;;;;;;;;4978226;28;20749;-80
2023/09/24 13:52:53;;;;;;;5.35;1.55;;;;;;;;;;4977266;28;20498;-80
2023/09/24 13:55:19;;;;;;;6.25;1.98;;;;;;;;;;4978731;28;20134;-80
2023/09/24 13:57:45;;;;;;;4.13;1.20;;;;;;;;;;4978079;28;20050;-80
2023/09/24 14:00:11;;;;;;;9.75;2.47;;;;;;;;;;4997008;28;20049;-80
2023/09/24 14:02:37;;;;;;;6.68;1.63;;;;;;;;;;4995712;28;20050;-80
2023/09/24 14:05:04;;;;;;;6.82;1.58;;;;;;;;;;4996531;28;20150;-80
2023/09/24 14:07:30;;;;;;;5.40;1.38;;;;;;;;;;4996299;28;20051;-80
2023/09/24 14:12:43;;;;;;;5.95;1.63;;;;;;;;;;4998344;28;20065;-80
2023/09/24 14:15:10;;;;;;;7.93;1.38;;;;;;;;;;5000755;28;20051;-80
2023/09/24 14:17:36;;;;;;;5.97;1.88;;;;;;;;;;5000283;28;20497;-80
2023/09/24 14:20:03;;;;;;;4.75;1.30;;;;;;;;;;5000707;28;20046;-80
2023/09/24 14:22:29;;;;;;;5.85;1.40;;;;;;;;;;5000412;28;20050;-80
2023/09/24 14:24:55;;;;;;;5.10;1.35;;;;;;;;;;4984710;28;20055;-80
2023/09/24 14:27:21;;;;;;;7.38;1.45;;;;;;;;;;4981187;28;20055;-80
2023/09/24 14:29:48;;;;;;;5.63;1.50;;;;;;;;;;4981779;28;20051;-81
2023/09/24 14:32:14;;;;;;;7.60;1.52;;;;;;;;;;4980017;28;20505;-81
2023/09/24 14:34:40;;;;;;;5.30;1.45;;;;;;;;;;4982032;28;20049;-80
2023/09/24 14:37:07;;;;;;;4.15;1.27;;;;;;;;;;4981056;28;20527;-80
2023/09/24 14:39:33;;;;;;;6.28;1.50;;;;;;;;;;4992773;28;20056;-80